Claysburg, PA (16625)

3:58 AM EST on December 10, 2016 (GMT -0500)
Claysburg (Near Queen,PA) | | Change Station

Elev 1240 ft 40.26 °N, 78.49 °W | Updated 56 seconds ago

Overcast
Overcast
24.8 °F
Feels Like 17 °F
N
7.0
Wind Variable Wind from West
Gusts 9.0 mph

Today
High -- | Low -- °F
--% Chance of Precip.
Yesterday
High -- | Low -- °F
Precip. -- in
Pressure 30.42 in
Visibility 10.0 miles
Clouds Overcast 2500 ft
Windchill 17 °F
Dew Point 18 °F
Humidity 76%
Rainfall 0.00 in
Snow Depth Not available.
7:26 AM 4:47 PM
Waxing Gibbous, 82% visible
METAR KAOO 100853Z AUTO 27010G19KT 10SM OVC025 M04/M08 A3036 RMK AO2 SNE04 SLP301 P0000 60000 T10391083 52007
Pressure 30.42 in
Visibility 10.0 miles
Clouds Overcast 2500 ft
Windchill 17 °F
Dew Point 18 °F
Humidity 76%
Rainfall 0.00 in
Snow Depth Not available.
7:26 AM 4:47 PM
Waxing Gibbous, 82% visible
METAR KAOO 100853Z AUTO 27010G19KT 10SM OVC025 M04/M08 A3036 RMK AO2 SNE04 SLP301 P0000 60000 T10391083 52007

10-Day Weather Forecast

Almanac

Astronomy

Dec. 10, 2016 Rise Set
Actual Time
Civil Twilight
Nautical Twilight
Astronomical Twilight
Moon
Length of Visible Light
Length of Day
Tomorrow will be .
, % of the Moon is Illuminated

Today's Extremes

State Highs State Lows

Community

WunderPhotos

Upload Photos

1,956,538 photos uploaded!

WunderBlog® & News

Nearby

Air Quality

  Air Quality AQ Index Pollutant
Not available.

Snow Depth

Station Depth Elevation

Earthquake Activity

City Distance Mag. Time & Date
Minimum magnitude displayed is 2.5.

Coastal Water Temperatures

Place Temperature

Stations

Nearby Weather Stations

Station Location Temp. Windchill Dew Point Humidity Wind Precip. Elev Updated Type
                   

Watches & Warnings

There are currently no watches in effect.